sensor_id;sensor_type;location;lat;lon;timestamp;pressure;altitude;pressure_sealevel;temperature;humidity
19777;BME280;10047;42.490;26.012;2023-05-02T00:01:54;100870.41;;;11.70;100.00
19777;BME280;10047;42.490;26.012;2023-05-02T00:04:20;100804.78;;;11.35;100.00
19777;BME280;10047;42.490;26.012;2023-05-02T00:06:46;100849.22;;;11.68;100.00
19777;BME280;10047;42.490;26.012;2023-05-02T00:09:11;100811.28;;;11.52;100.00
19777;BME280;10047;42.490;26.012;2023-05-02T00:11:38;100696.25;;;11.31;100.00
19777;BME280;10047;42.490;26.012;2023-05-02T00:14:04;100694.38;;;10.97;100.00
19777;BME280;10047;42.490;26.012;2023-05-02T00:16:29;100802.69;;;11.59;100.00
19777;BME280;10047;42.490;26.012;2023-05-02T00:18:55;100801.44;;;11.33;100.00
19777;BME280;10047;42.490;26.012;2023-05-02T00:21:29;100820.41;;;11.63;100.00
19777;BME280;10047;42.490;26.012;2023-05-02T00:23:55;100826.50;;;11.56;100.00
19777;BME280;10047;42.490;26.012;2023-05-02T00:26:24;100769.81;;;10.98;100.00
19777;BME280;10047;42.490;26.012;2023-05-02T00:28:50;100841.25;;;11.86;100.00
19777;BME280;10047;42.490;26.012;2023-05-02T00:31:16;100783.59;;;11.35;100.00
19777;BME280;10047;42.490;26.012;2023-05-02T00:33:42;100836.75;;;11.52;100.00
19777;BME280;10047;42.490;26.012;2023-05-02T00:36:17;100804.88;;;11.31;100.00
19777;BME280;10047;42.490;26.012;2023-05-02T00:38:43;100835.69;;;11.63;100.00
19777;BME280;10047;42.490;26.012;2023-05-02T00:41:09;100792.72;;;11.47;100.00
19777;BME280;10047;42.490;26.012;2023-05-02T00:43:35;100794.34;;;11.51;100.00
19777;BME280;10047;42.490;26.012;2023-05-02T00:46:01;100793.75;;;11.37;100.00
19777;BME280;10047;42.490;26.012;2023-05-02T00:48:27;100785.44;;;11.27;100.00
19777;BME280;10047;42.490;26.012;2023-05-02T00:50:52;100837.34;;;11.67;100.00
19777;BME280;10047;42.490;26.012;2023-05-02T00:53:17;100842.00;;;11.44;100.00
19777;BME280;10047;42.490;26.012;2023-05-02T00:55:43;100826.97;;;11.29;100.00
19777;BME280;10047;42.490;26.012;2023-05-02T00:58:13;100843.97;;;11.27;100.00
19777;BME280;10047;42.490;26.012;2023-05-02T01:00:50;100852.22;;;11.43;100.00
19777;BME280;10047;42.490;26.012;2023-05-02T01:06:14;100797.91;;;10.92;100.00
19777;BME280;10047;42.490;26.012;2023-05-02T01:14:16;100866.25;;;11.14;100.00
19777;BME280;10047;42.490;26.012;2023-05-02T01:16:44;100783.34;;;10.50;100.00
19777;BME280;10047;42.490;26.012;2023-05-02T01:19:31;100854.22;;;10.71;100.00
19777;BME280;10047;42.490;26.012;2023-05-02T01:22:01;100906.94;;;11.16;100.00
19777;BME280;10047;42.490;26.012;2023-05-02T01:24:58;100928.31;;;11.06;100.00
19777;BME280;10047;42.490;26.012;2023-05-02T01:30:17;100892.44;;;10.65;100.00
19777;BME280;10047;42.490;26.012;2023-05-02T01:32:45;100957.97;;;11.08;100.00
19777;BME280;10047;42.490;26.012;2023-05-02T01:35:14;100970.91;;;10.93;100.00
19777;BME280;10047;42.490;26.012;2023-05-02T01:37:42;100931.44;;;10.62;100.00
19777;BME280;10047;42.490;26.012;2023-05-02T01:40:09;101007.41;;;10.88;100.00
19777;BME280;10047;42.490;26.012;2023-05-02T01:42:37;100917.56;;;10.22;100.00
19777;BME280;10047;42.490;26.012;2023-05-02T01:45:06;100960.53;;;10.40;100.00
19777;BME280;10047;42.490;26.012;2023-05-02T01:47:34;101029.53;;;10.84;100.00
19777;BME280;10047;42.490;26.012;2023-05-02T01:50:02;101049.78;;;10.93;100.00
19777;BME280;10047;42.490;26.012;2023-05-02T01:52:28;101038.28;;;10.61;100.00
19777;BME280;10047;42.490;26.012;2023-05-02T01:54:56;101056.69;;;10.81;100.00
19777;BME280;10047;42.490;26.012;2023-05-02T01:57:23;101033.59;;;10.97;100.00
19777;BME280;10047;42.490;26.012;2023-05-02T01:59:49;101038.56;;;11.06;100.00
19777;BME280;10047;42.490;26.012;2023-05-02T02:02:16;101039.41;;;11.08;100.00
19777;BME280;10047;42.490;26.012;2023-05-02T02:04:43;101042.22;;;10.87;100.00
19777;BME280;10047;42.490;26.012;2023-05-02T02:07:12;101054.03;;;10.93;100.00
19777;BME280;10047;42.490;26.012;2023-05-02T02:09:37;101005.72;;;10.15;100.00
19777;BME280;10047;42.490;26.012;2023-05-02T02:17:59;101218.69;;;10.76;100.00
19777;BME280;10047;42.490;26.012;2023-05-02T02:20:23;101179.13;;;10.44;100.00
19777;BME280;10047;42.490;26.012;2023-05-02T02:22:50;101220.50;;;10.63;100.00
19777;BME280;10047;42.490;26.012;2023-05-02T02:25:17;101198.94;;;9.93;100.00
19777;BME280;10047;42.490;26.012;2023-05-02T02:27:43;101238.66;;;10.04;100.00
19777;BME280;10047;42.490;26.012;2023-05-02T02:30:09;101281.75;;;10.31;100.00
19777;BME280;10047;42.490;26.012;2023-05-02T02:32:35;101363.84;;;10.47;100.00
19777;BME280;10047;42.490;26.012;2023-05-02T02:35:01;101346.16;;;10.24;100.00
19777;BME280;10047;42.490;26.012;2023-05-02T02:37:32;101425.75;;;10.41;100.00
19777;BME280;10047;42.490;26.012;2023-05-02T02:42:35;101525.72;;;10.56;100.00
19777;BME280;10047;42.490;26.012;2023-05-02T02:45:34;101517.31;;;10.23;100.00
19777;BME280;10047;42.490;26.012;2023-05-02T02:48:08;101491.91;;;9.86;100.00
19777;BME280;10047;42.490;26.012;2023-05-02T02:53:33;101548.66;;;10.06;100.00
19777;BME280;10047;42.490;26.012;2023-05-02T02:56:05;101563.06;;;9.90;100.00
19777;BME280;10047;42.490;26.012;2023-05-02T02:58:52;101576.56;;;9.97;100.00
19777;BME280;10047;42.490;26.012;2023-05-02T03:01:20;101598.63;;;9.96;100.00
19777;BME280;10047;42.490;26.012;2023-05-02T03:03:47;101589.28;;;9.82;100.00
19777;BME280;10047;42.490;26.012;2023-05-02T03:06:15;101627.34;;;9.70;100.00
19777;BME280;10047;42.490;26.012;2023-05-02T03:08:42;101656.97;;;9.71;100.00
19777;BME280;10047;42.490;26.012;2023-05-02T03:11:07;101658.78;;;10.18;100.00
19777;BME280;10047;42.490;26.012;2023-05-02T03:13:37;101612.88;;;9.40;100.00
19777;BME280;10047;42.490;26.012;2023-05-02T03:16:30;101695.16;;;10.04;100.00
19777;BME280;10047;42.490;26.012;2023-05-02T03:18:56;101711.28;;;10.10;100.00
19777;BME280;10047;42.490;26.012;2023-05-02T03:21:22;101713.78;;;10.01;100.00
19777;BME280;10047;42.490;26.012;2023-05-02T03:23:47;101719.72;;;10.05;100.00
19777;BME280;10047;42.490;26.012;2023-05-02T03:26:13;101744.38;;;10.34;100.00
19777;BME280;10047;42.490;26.012;2023-05-02T03:28:38;101694.31;;;9.94;100.00
19777;BME280;10047;42.490;26.012;2023-05-02T03:31:04;101708.63;;;9.77;100.00
19777;BME280;10047;42.490;26.012;2023-05-02T03:33:29;101729.84;;;9.90;100.00
19777;BME280;10047;42.490;26.012;2023-05-02T03:35:55;101685.81;;;9.95;100.00
19777;BME280;10047;42.490;26.012;2023-05-02T03:38:21;101784.16;;;11.70;100.00
19777;BME280;10047;42.490;26.012;2023-05-02T03:40:47;101701.94;;;10.03;100.00
19777;BME280;10047;42.490;26.012;2023-05-02T03:43:12;101734.97;;;10.06;100.00
19777;BME280;10047;42.490;26.012;2023-05-02T03:45:37;101739.25;;;10.13;100.00
19777;BME280;10047;42.490;26.012;2023-05-02T03:48:03;101736.75;;;10.36;100.00
19777;BME280;10047;42.490;26.012;2023-05-02T03:50:28;101674.88;;;10.13;100.00
19777;BME280;10047;42.490;26.012;2023-05-02T03:52:54;101712.16;;;10.21;100.00
19777;BME280;10047;42.490;26.012;2023-05-02T03:55:19;101662.97;;;10.07;100.00
19777;BME280;10047;42.490;26.012;2023-05-02T03:57:45;101636.78;;;10.23;100.00
19777;BME280;10047;42.490;26.012;2023-05-02T04:00:11;101679.13;;;10.61;100.00
19777;BME280;10047;42.490;26.012;2023-05-02T04:02:37;101670.63;;;10.72;100.00
19777;BME280;10047;42.490;26.012;2023-05-02T04:05:03;101544.41;;;9.79;100.00
19777;BME280;10047;42.490;26.012;2023-05-02T04:07:28;101653.69;;;10.30;100.00
19777;BME280;10047;42.490;26.012;2023-05-02T04:09:53;101633.38;;;10.47;100.00
19777;BME280;10047;42.490;26.012;2023-05-02T04:12:19;101672.28;;;11.00;100.00
19777;BME280;10047;42.490;26.012;2023-05-02T04:14:44;101544.41;;;10.18;100.00
19777;BME280;10047;42.490;26.012;2023-05-02T04:17:10;101564.69;;;10.50;100.00
19777;BME280;10047;42.490;26.012;2023-05-02T04:19:35;101533.31;;;10.65;100.00
19777;BME280;10047;42.490;26.012;2023-05-02T04:22:01;101528.84;;;11.12;100.00
19777;BME280;10047;42.490;26.012;2023-05-02T04:24:28;101411.13;;;10.80;100.00
19777;BME280;10047;42.490;26.012;2023-05-02T04:26:54;101408.53;;;10.93;100.00
19777;BME280;10047;42.490;26.012;2023-05-02T04:29:19;101358.75;;;10.52;100.00
19777;BME280;10047;42.490;26.012;2023-05-02T04:31:45;101279.97;;;10.42;100.00
19777;BME280;10047;42.490;26.012;2023-05-02T04:34:10;101335.91;;;10.38;100.00
19777;BME280;10047;42.490;26.012;2023-05-02T04:36:36;101296.22;;;10.14;100.00
19777;BME280;10047;42.490;26.012;2023-05-02T04:39:02;101321.56;;;10.31;100.00
19777;BME280;10047;42.490;26.012;2023-05-02T04:41:28;101339.22;;;10.57;100.00
19777;BME280;10047;42.490;26.012;2023-05-02T04:43:53;101338.13;;;10.91;100.00
19777;BME280;10047;42.490;26.012;2023-05-02T04:46:19;101377.56;;;12.27;100.00
19777;BME280;10047;42.490;26.012;2023-05-02T04:48:44;101384.38;;;11.41;100.00
19777;BME280;10047;42.490;26.012;2023-05-02T04:51:09;101389.41;;;11.50;100.00
19777;BME280;10047;42.490;26.012;2023-05-02T04:53:36;101293.69;;;11.29;100.00
19777;BME280;10047;42.490;26.012;2023-05-02T04:56:01;101352.88;;;11.51;100.00
19777;BME280;10047;42.490;26.012;2023-05-02T04:58:27;101335.31;;;12.07;100.00
19777;BME280;10047;42.490;26.012;2023-05-02T05:00:52;101285.19;;;12.06;100.00
19777;BME280;10047;42.490;26.012;2023-05-02T05:03:19;101173.59;;;11.64;100.00
19777;BME280;10047;42.490;26.012;2023-05-02T05:05:44;101199.25;;;12.66;100.00
19777;BME280;10047;42.490;26.012;2023-05-02T05:08:09;101093.59;;;12.78;100.00
19777;BME280;10047;42.490;26.012;2023-05-02T05:10:35;101001.31;;;12.10;100.00
19777;BME280;10047;42.490;26.012;2023-05-02T05:13:00;100993.72;;;12.94;100.00
19777;BME280;10047;42.490;26.012;2023-05-02T05:15:26;100953.06;;;12.87;100.00
19777;BME280;10047;42.490;26.012;2023-05-02T05:17:51;101046.03;;;13.17;100.00
19777;BME280;10047;42.490;26.012;2023-05-02T05:20:17;101034.22;;;13.51;100.00
19777;BME280;10047;42.490;26.012;2023-05-02T05:22:44;100970.72;;;13.69;100.00
19777;BME280;10047;42.490;26.012;2023-05-02T05:25:09;100930.50;;;13.76;100.00
19777;BME280;10047;42.490;26.012;2023-05-02T05:27:36;100830.75;;;13.79;100.00
19777;BME280;10047;42.490;26.012;2023-05-02T05:30:05;100830.81;;;14.65;100.00
19777;BME280;10047;42.490;26.012;2023-05-02T05:32:33;100712.69;;;14.23;100.00
19777;BME280;10047;42.490;26.012;2023-05-02T05:34:58;100701.59;;;14.23;100.00
19777;BME280;10047;42.490;26.012;2023-05-02T05:37:23;100659.34;;;14.88;100.00
19777;BME280;10047;42.490;26.012;2023-05-02T05:39:49;100611.50;;;15.13;100.00
19777;BME280;10047;42.490;26.012;2023-05-02T05:42:14;100558.44;;;15.61;100.00
19777;BME280;10047;42.490;26.012;2023-05-02T05:44:41;100505.28;;;15.67;100.00
19777;BME280;10047;42.490;26.012;2023-05-02T05:47:06;100465.06;;;15.67;100.00
19777;BME280;10047;42.490;26.012;2023-05-02T05:49:31;100467.41;;;15.30;100.00
19777;BME280;10047;42.490;26.012;2023-05-02T05:51:57;100484.91;;;16.24;100.00
19777;BME280;10047;42.490;26.012;2023-05-02T05:54:23;100501.06;;;15.86;100.00
19777;BME280;10047;42.490;26.012;2023-05-02T05:56:48;100528.25;;;15.90;100.00
19777;BME280;10047;42.490;26.012;2023-05-02T05:59:14;100515.03;;;16.19;100.00
19777;BME280;10047;42.490;26.012;2023-05-02T06:01:39;100489.78;;;16.30;100.00
19777;BME280;10047;42.490;26.012;2023-05-02T06:04:05;100464.97;;;15.70;100.00
19777;BME280;10047;42.490;26.012;2023-05-02T06:06:31;100524.78;;;16.11;100.00
19777;BME280;10047;42.490;26.012;2023-05-02T06:08:57;100531.91;;;16.04;100.00
19777;BME280;10047;42.490;26.012;2023-05-02T06:11:22;100554.69;;;16.12;100.00
19777;BME280;10047;42.490;26.012;2023-05-02T06:13:50;100537.44;;;16.35;100.00
19777;BME280;10047;42.490;26.012;2023-05-02T06:16:15;100595.22;;;16.44;100.00
19777;BME280;10047;42.490;26.012;2023-05-02T06:18:45;100569.31;;;16.10;100.00
19777;BME280;10047;42.490;26.012;2023-05-02T06:21:10;100640.25;;;17.11;100.00
19777;BME280;10047;42.490;26.012;2023-05-02T06:23:36;100662.75;;;17.06;100.00
19777;BME280;10047;42.490;26.012;2023-05-02T06:26:03;100712.16;;;17.13;100.00
19777;BME280;10047;42.490;26.012;2023-05-02T06:28:30;100701.94;;;16.51;100.00
19777;BME280;10047;42.490;26.012;2023-05-02T06:31:04;100701.22;;;16.88;100.00
19777;BME280;10047;42.490;26.012;2023-05-02T06:33:31;100789.53;;;17.25;100.00
19777;BME280;10047;42.490;26.012;2023-05-02T06:35:57;100807.44;;;17.49;100.00
19777;BME280;10047;42.490;26.012;2023-05-02T06:38:22;100800.69;;;18.03;100.00
19777;BME280;10047;42.490;26.012;2023-05-02T06:40:49;100870.38;;;17.80;100.00
19777;BME280;10047;42.490;26.012;2023-05-02T06:43:15;100876.03;;;17.88;100.00
19777;BME280;10047;42.490;26.012;2023-05-02T06:45:40;100893.19;;;17.88;100.00
19777;BME280;10047;42.490;26.012;2023-05-02T06:48:06;100866.41;;;17.92;100.00
19777;BME280;10047;42.490;26.012;2023-05-02T06:50:32;100875.78;;;17.74;100.00
19777;BME280;10047;42.490;26.012;2023-05-02T06:52:58;100934.06;;;18.14;100.00
19777;BME280;10047;42.490;26.012;2023-05-02T06:55:23;100942.16;;;18.45;100.00
19777;BME280;10047;42.490;26.012;2023-05-02T06:57:49;100941.47;;;19.15;100.00
19777;BME280;10047;42.490;26.012;2023-05-02T07:00:15;100905.56;;;19.46;100.00
19777;BME280;10047;42.490;26.012;2023-05-02T07:02:44;100975.31;;;19.78;100.00
19777;BME280;10047;42.490;26.012;2023-05-02T07:05:09;100977.16;;;19.05;100.00
19777;BME280;10047;42.490;26.012;2023-05-02T07:07:35;100957.19;;;18.73;100.00
19777;BME280;10047;42.490;26.012;2023-05-02T07:10:01;100927.78;;;18.95;100.00
19777;BME280;10047;42.490;26.012;2023-05-02T07:12:26;100925.13;;;19.84;100.00
19777;BME280;10047;42.490;26.012;2023-05-02T07:14:52;100952.63;;;19.51;100.00
19777;BME280;10047;42.490;26.012;2023-05-02T07:17:18;100968.97;;;19.33;100.00
19777;BME280;10047;42.490;26.012;2023-05-02T07:19:43;100954.31;;;20.19;100.00
19777;BME280;10047;42.490;26.012;2023-05-02T07:22:09;100934.97;;;19.25;100.00
19777;BME280;10047;42.490;26.012;2023-05-02T07:24:34;100953.13;;;19.92;100.00
19777;BME280;10047;42.490;26.012;2023-05-02T07:27:00;100965.78;;;20.13;100.00
19777;BME280;10047;42.490;26.012;2023-05-02T07:29:27;100960.97;;;20.40;100.00
19777;BME280;10047;42.490;26.012;2023-05-02T07:31:52;100903.63;;;19.83;100.00
19777;BME280;10047;42.490;26.012;2023-05-02T07:34:18;100947.78;;;20.44;100.00
19777;BME280;10047;42.490;26.012;2023-05-02T07:36:43;100893.88;;;20.54;100.00
19777;BME280;10047;42.490;26.012;2023-05-02T07:39:09;100885.44;;;20.82;100.00
19777;BME280;10047;42.490;26.012;2023-05-02T07:41:34;100887.78;;;20.70;100.00
19777;BME280;10047;42.490;26.012;2023-05-02T07:44:00;100932.38;;;20.58;100.00
19777;BME280;10047;42.490;26.012;2023-05-02T07:46:25;100887.28;;;20.48;100.00
19777;BME280;10047;42.490;26.012;2023-05-02T07:48:50;100884.44;;;20.37;99.71
19777;BME280;10047;42.490;26.012;2023-05-02T07:51:18;100915.75;;;20.94;95.64
19777;BME280;10047;42.490;26.012;2023-05-02T07:53:45;100923.09;;;20.23;98.09
19777;BME280;10047;42.490;26.012;2023-05-02T07:56:11;100871.13;;;21.35;99.52
19777;BME280;10047;42.490;26.012;2023-05-02T07:58:36;100867.47;;;21.10;91.68
19777;BME280;10047;42.490;26.012;2023-05-02T08:01:02;100884.84;;;20.77;85.91
19777;BME280;10047;42.490;26.012;2023-05-02T08:03:29;100872.78;;;21.66;86.35
19777;BME280;10047;42.490;26.012;2023-05-02T08:05:54;100877.34;;;20.56;87.70
19777;BME280;10047;42.490;26.012;2023-05-02T08:08:20;100918.38;;;21.09;86.26
19777;BME280;10047;42.490;26.012;2023-05-02T08:10:46;100920.03;;;20.95;86.19
19777;BME280;10047;42.490;26.012;2023-05-02T08:13:11;100906.41;;;21.52;85.18
19777;BME280;10047;42.490;26.012;2023-05-02T08:15:37;100870.84;;;20.81;86.52
19777;BME280;10047;42.490;26.012;2023-05-02T08:18:02;100887.75;;;21.17;85.33
19777;BME280;10047;42.490;26.012;2023-05-02T08:20:28;100859.50;;;22.69;83.96
19777;BME280;10047;42.490;26.012;2023-05-02T08:22:53;100914.75;;;20.96;85.90
19777;BME280;10047;42.490;26.012;2023-05-02T08:25:19;100872.97;;;22.33;81.82
19777;BME280;10047;42.490;26.012;2023-05-02T08:27:44;100910.19;;;21.90;84.98
19777;BME280;10047;42.490;26.012;2023-05-02T08:30:10;100899.31;;;21.70;82.70
19777;BME280;10047;42.490;26.012;2023-05-02T08:32:36;100845.00;;;21.40;84.24
19777;BME280;10047;42.490;26.012;2023-05-02T08:35:01;100854.94;;;21.76;85.27
19777;BME280;10047;42.490;26.012;2023-05-02T08:37:27;100894.84;;;21.57;82.89
19777;BME280;10047;42.490;26.012;2023-05-02T08:39:53;100897.72;;;21.67;76.32
19777;BME280;10047;42.490;26.012;2023-05-02T08:42:18;100873.66;;;21.07;77.81
19777;BME280;10047;42.490;26.012;2023-05-02T08:44:50;100899.78;;;21.62;76.59
19777;BME280;10047;42.490;26.012;2023-05-02T08:47:17;100886.53;;;22.10;81.87
19777;BME280;10047;42.490;26.012;2023-05-02T08:49:43;100891.53;;;21.55;73.59
19777;BME280;10047;42.490;26.012;2023-05-02T08:52:11;100863.88;;;20.97;77.73
19777;BME280;10047;42.490;26.012;2023-05-02T08:54:37;100894.13;;;21.26;76.20
19777;BME280;10047;42.490;26.012;2023-05-02T08:57:04;100896.66;;;21.41;78.90
19777;BME280;10047;42.490;26.012;2023-05-02T08:59:30;100863.28;;;21.23;72.61
19777;BME280;10047;42.490;26.012;2023-05-02T09:02:04;100887.25;;;21.84;71.52
19777;BME280;10047;42.490;26.012;2023-05-02T09:04:40;100803.25;;;22.16;70.89
19777;BME280;10047;42.490;26.012;2023-05-02T09:07:07;100850.94;;;21.12;73.00
19777;BME280;10047;42.490;26.012;2023-05-02T09:09:33;100899.03;;;21.30;65.56
19777;BME280;10047;42.490;26.012;2023-05-02T09:11:59;100901.69;;;21.44;65.66
19777;BME280;10047;42.490;26.012;2023-05-02T09:14:25;100850.69;;;21.17;65.40
19777;BME280;10047;42.490;26.012;2023-05-02T09:16:57;100901.53;;;21.76;62.82
19777;BME280;10047;42.490;26.012;2023-05-02T09:19:24;100814.75;;;20.97;63.25
19777;BME280;10047;42.490;26.012;2023-05-02T09:21:59;100887.16;;;22.28;62.49
19777;BME280;10047;42.490;26.012;2023-05-02T09:24:25;100893.91;;;21.44;66.51
19777;BME280;10047;42.490;26.012;2023-05-02T09:26:59;100886.88;;;21.90;62.87
19777;BME280;10047;42.490;26.012;2023-05-02T09:29:26;100841.22;;;21.59;64.95
19777;BME280;10047;42.490;26.012;2023-05-02T09:31:52;100793.56;;;21.06;66.02
19777;BME280;10047;42.490;26.012;2023-05-02T09:34:18;100888.63;;;22.18;59.59
19777;BME280;10047;42.490;26.012;2023-05-02T09:36:48;100856.72;;;22.17;57.34
19777;BME280;10047;42.490;26.012;2023-05-02T09:39:25;100875.13;;;21.99;59.99
19777;BME280;10047;42.490;26.012;2023-05-02T09:41:53;100869.97;;;22.68;59.21
19777;BME280;10047;42.490;26.012;2023-05-02T09:44:23;100865.31;;;22.32;61.80
19777;BME280;10047;42.490;26.012;2023-05-02T09:46:54;100856.13;;;22.26;61.63
19777;BME280;10047;42.490;26.012;2023-05-02T09:52:17;100795.22;;;21.65;57.94
19777;BME280;10047;42.490;26.012;2023-05-02T09:54:43;100858.75;;;23.06;59.85
19777;BME280;10047;42.490;26.012;2023-05-02T09:57:10;100848.94;;;22.17;60.42
19777;BME280;10047;42.490;26.012;2023-05-02T09:59:36;100818.78;;;21.74;62.02
19777;BME280;10047;42.490;26.012;2023-05-02T10:02:03;100796.09;;;22.20;62.76
19777;BME280;10047;42.490;26.012;2023-05-02T10:04:31;100791.28;;;22.40;61.91
19777;BME280;10047;42.490;26.012;2023-05-02T10:06:57;100848.66;;;22.08;62.22
19777;BME280;10047;42.490;26.012;2023-05-02T10:09:24;100852.00;;;21.24;62.14
19777;BME280;10047;42.490;26.012;2023-05-02T10:11:52;100749.16;;;22.51;58.38
19777;BME280;10047;42.490;26.012;2023-05-02T10:14:19;100847.66;;;21.96;56.95
19777;BME280;10047;42.490;26.012;2023-05-02T10:17:00;100793.72;;;22.70;55.20
19777;BME280;10047;42.490;26.012;2023-05-02T10:19:31;100826.47;;;23.37;53.96
19777;BME280;10047;42.490;26.012;2023-05-02T10:21:58;100789.59;;;22.80;54.54
19777;BME280;10047;42.490;26.012;2023-05-02T10:24:24;100761.16;;;22.79;56.34
19777;BME280;10047;42.490;26.012;2023-05-02T10:26:51;100816.41;;;22.93;52.65
19777;BME280;10047;42.490;26.012;2023-05-02T10:29:17;100756.63;;;23.20;54.71
19777;BME280;10047;42.490;26.012;2023-05-02T10:31:44;100754.31;;;22.24;57.01
19777;BME280;10047;42.490;26.012;2023-05-02T10:34:10;100767.00;;;22.02;57.54
19777;BME280;10047;42.490;26.012;2023-05-02T10:36:36;100771.69;;;23.15;53.73
19777;BME280;10047;42.490;26.012;2023-05-02T10:39:02;100770.66;;;23.68;55.58
19777;BME280;10047;42.490;26.012;2023-05-02T10:41:30;100802.03;;;24.26;52.69
19777;BME280;10047;42.490;26.012;2023-05-02T10:43:57;100799.63;;;23.11;54.11
19777;BME280;10047;42.490;26.012;2023-05-02T10:46:35;100806.13;;;23.31;54.09
19777;BME280;10047;42.490;26.012;2023-05-02T10:51:31;100770.38;;;22.43;53.41
19777;BME280;10047;42.490;26.012;2023-05-02T10:59:31;100805.91;;;23.47;50.42
19777;BME280;10047;42.490;26.012;2023-05-02T11:01:57;100758.13;;;22.60;52.67
19777;BME280;10047;42.490;26.012;2023-05-02T11:04:23;100792.38;;;23.67;50.76
19777;BME280;10047;42.490;26.012;2023-05-02T11:09:38;100757.88;;;23.02;52.61
19777;BME280;10047;42.490;26.012;2023-05-02T11:12:04;100780.16;;;22.53;54.21
19777;BME280;10047;42.490;26.012;2023-05-02T11:17:07;100809.78;;;22.49;54.13
19777;BME280;10047;42.490;26.012;2023-05-02T11:22:31;100785.97;;;23.96;54.87
19777;BME280;10047;42.490;26.012;2023-05-02T11:24:56;100788.91;;;23.16;56.64
19777;BME280;10047;42.490;26.012;2023-05-02T11:29:55;100740.13;;;22.57;55.14
19777;BME280;10047;42.490;26.012;2023-05-02T11:32:21;100747.84;;;22.58;54.22
19777;BME280;10047;42.490;26.012;2023-05-02T11:34:48;100783.50;;;22.94;53.69
19777;BME280;10047;42.490;26.012;2023-05-02T11:37:17;100788.72;;;23.06;55.11
19777;BME280;10047;42.490;26.012;2023-05-02T11:39:43;100799.63;;;22.60;55.28
19777;BME280;10047;42.490;26.012;2023-05-02T11:42:09;100785.06;;;22.84;52.48
19777;BME280;10047;42.490;26.012;2023-05-02T11:44:54;100746.19;;;23.34;53.78
19777;BME280;10047;42.490;26.012;2023-05-02T11:47:20;100754.34;;;23.28;53.50
19777;BME280;10047;42.490;26.012;2023-05-02T11:49:46;100773.69;;;23.11;54.09
19777;BME280;10047;42.490;26.012;2023-05-02T11:52:12;100725.22;;;23.37;51.24
19777;BME280;10047;42.490;26.012;2023-05-02T11:54:37;100747.31;;;23.17;52.43
19777;BME280;10047;42.490;26.012;2023-05-02T11:57:04;100771.06;;;23.74;53.88
19777;BME280;10047;42.490;26.012;2023-05-02T11:59:29;100767.06;;;23.45;53.57
19777;BME280;10047;42.490;26.012;2023-05-02T12:01:54;100758.91;;;23.75;54.68
19777;BME280;10047;42.490;26.012;2023-05-02T12:04:21;100753.84;;;23.97;55.57
19777;BME280;10047;42.490;26.012;2023-05-02T12:06:57;100752.28;;;24.07;53.74
19777;BME280;10047;42.490;26.012;2023-05-02T12:09:23;100755.28;;;24.14;53.81
19777;BME280;10047;42.490;26.012;2023-05-02T12:11:52;100764.16;;;23.98;54.99
19777;BME280;10047;42.490;26.012;2023-05-02T12:14:26;100715.97;;;24.18;56.03
19777;BME280;10047;42.490;26.012;2023-05-02T12:16:52;100751.97;;;23.63;56.55
19777;BME280;10047;42.490;26.012;2023-05-02T12:19:17;100693.44;;;23.08;57.90
19777;BME280;10047;42.490;26.012;2023-05-02T12:21:43;100685.41;;;22.61;58.12
19777;BME280;10047;42.490;26.012;2023-05-02T12:24:09;100692.09;;;22.78;56.86
19777;BME280;10047;42.490;26.012;2023-05-02T12:26:35;100722.41;;;23.15;57.24
19777;BME280;10047;42.490;26.012;2023-05-02T12:29:00;100687.63;;;23.79;59.72
19777;BME280;10047;42.490;26.012;2023-05-02T12:31:27;100725.50;;;24.06;58.11
19777;BME280;10047;42.490;26.012;2023-05-02T12:33:55;100677.13;;;22.94;60.05
19777;BME280;10047;42.490;26.012;2023-05-02T12:36:23;100671.88;;;22.56;59.89
19777;BME280;10047;42.490;26.012;2023-05-02T12:38:50;100671.22;;;23.17;60.16
19777;BME280;10047;42.490;26.012;2023-05-02T12:41:39;100709.28;;;23.54;59.50
19777;BME280;10047;42.490;26.012;2023-05-02T12:44:10;100696.06;;;23.93;58.28
19777;BME280;10047;42.490;26.012;2023-05-02T12:46:35;100714.31;;;23.32;59.69
19777;BME280;10047;42.490;26.012;2023-05-02T12:51:27;100707.53;;;22.92;55.92
19777;BME280;10047;42.490;26.012;2023-05-02T12:53:52;100708.28;;;23.19;52.70
19777;BME280;10047;42.490;26.012;2023-05-02T12:56:18;100698.97;;;23.65;59.35
19777;BME280;10047;42.490;26.012;2023-05-02T12:58:46;100650.03;;;22.60;62.62
19777;BME280;10047;42.490;26.012;2023-05-02T13:01:13;100701.00;;;23.49;62.78
19777;BME280;10047;42.490;26.012;2023-05-02T13:03:39;100640.78;;;23.44;65.07
19777;BME280;10047;42.490;26.012;2023-05-02T13:06:05;100698.84;;;23.05;63.85
19777;BME280;10047;42.490;26.012;2023-05-02T13:08:32;100686.50;;;23.70;65.43
19777;BME280;10047;42.490;26.012;2023-05-02T13:10:58;100681.09;;;23.37;64.81
19777;BME280;10047;42.490;26.012;2023-05-02T13:13:23;100671.84;;;23.69;66.45
19777;BME280;10047;42.490;26.012;2023-05-02T13:15:49;100678.97;;;23.29;66.86
19777;BME280;10047;42.490;26.012;2023-05-02T13:18:14;100621.09;;;22.54;67.72
19777;BME280;10047;42.490;26.012;2023-05-02T13:20:39;100673.94;;;22.78;69.40
19777;BME280;10047;42.490;26.012;2023-05-02T13:23:05;100617.13;;;23.36;72.31